createdAt,value
2018-04-24T00:02:18.364Z,6.47
2018-04-24T00:04:48.264Z,6.37
2018-04-24T00:07:17.784Z,5.87
2018-04-24T00:09:47.781Z,6.27
2018-04-24T00:12:17.817Z,6.43
2018-04-24T00:14:47.738Z,6.37
2018-04-24T00:17:17.652Z,6.87
2018-04-24T00:19:47.577Z,6.60
2018-04-24T00:22:17.081Z,6.90
2018-04-24T00:24:46.585Z,6.60
2018-04-24T00:27:16.112Z,7.20
2018-04-24T00:29:45.627Z,6.50
2018-04-24T00:32:15.134Z,6.37
2018-04-24T00:34:44.637Z,6.73
2018-04-24T00:37:14.146Z,6.60
2018-04-24T00:39:43.671Z,6.50
2018-04-24T00:42:13.178Z,6.33
2018-04-24T00:44:42.682Z,6.63
2018-04-24T00:47:12.189Z,6.73
2018-04-24T00:49:41.692Z,6.33
2018-04-24T00:52:11.436Z,6.73
2018-04-24T00:54:41.356Z,7.10
2018-04-24T00:57:11.612Z,7.00
2018-04-24T00:59:41.126Z,7.17
2018-04-24T01:02:10.664Z,6.63
2018-04-24T01:04:40.156Z,6.73
2018-04-24T01:07:09.699Z,7.00
2018-04-24T01:09:39.620Z,6.43
2018-04-24T01:12:09.514Z,6.70
2018-04-24T01:14:39.030Z,6.77
2018-04-24T01:17:08.952Z,6.83
2018-04-24T01:19:38.662Z,7.17
2018-04-24T01:22:08.571Z,6.03
2018-04-24T01:24:38.083Z,6.23
2018-04-24T01:27:07.995Z,6.87
2018-04-24T01:29:37.885Z,6.17
2018-04-24T01:32:07.059Z,6.67
2018-04-24T01:34:36.566Z,6.50
2018-04-24T01:37:05.729Z,7.07
2018-04-24T01:39:35.242Z,6.70
2018-04-24T01:42:04.768Z,6.17
2018-04-24T01:44:34.046Z,6.60
2018-04-24T01:47:03.573Z,7.47
2018-04-24T01:49:33.096Z,6.80
2018-04-24T01:52:02.845Z,6.77
2018-04-24T01:54:32.744Z,6.73
2018-04-24T01:57:02.279Z,6.70
2018-04-24T01:59:32.181Z,7.17
2018-04-24T02:02:02.077Z,5.90
2018-04-24T02:04:31.593Z,6.30
2018-04-24T02:07:01.113Z,6.47
2018-04-24T02:09:31.031Z,6.70
2018-04-24T02:12:00.942Z,6.37
2018-04-24T02:14:30.831Z,6.97
2018-04-24T02:17:00.361Z,7.37
2018-04-24T02:19:30.254Z,6.83
2018-04-24T02:21:59.767Z,7.33
2018-04-24T02:24:29.293Z,7.20
2018-04-24T02:26:59.185Z,6.50
2018-04-24T02:29:28.718Z,6.53
2018-04-24T02:31:58.637Z,7.13
2018-04-24T02:34:28.145Z,6.37
2018-04-24T02:36:57.681Z,6.13
2018-04-24T02:39:27.189Z,6.67
2018-04-24T02:41:57.058Z,6.87
2018-04-24T02:44:26.967Z,7.53
2018-04-24T02:46:56.879Z,6.83
2018-04-24T02:49:26.804Z,6.50
2018-04-24T02:51:56.699Z,6.63
2018-04-24T02:54:26.240Z,6.67
2018-04-24T02:56:56.029Z,6.33
2018-04-24T02:59:25.966Z,7.20
2018-04-24T03:01:55.497Z,6.57
2018-04-24T03:04:25.024Z,7.03
2018-04-24T03:06:54.196Z,6.90
2018-04-24T03:09:23.732Z,6.30
2018-04-24T03:11:53.345Z,6.23
2018-04-24T03:14:23.054Z,6.77
2018-04-24T03:16:51.672Z,6.37
2018-04-24T03:19:21.890Z,5.80
2018-04-24T03:21:51.822Z,6.43
2018-04-24T03:24:21.618Z,6.23
2018-04-24T03:26:51.536Z,6.47
2018-04-24T03:29:21.438Z,6.53
2018-04-24T03:31:50.945Z,6.80
2018-04-24T03:34:20.468Z,6.63
2018-04-24T03:36:49.995Z,6.90
2018-04-24T03:39:19.497Z,6.43
2018-04-24T03:41:49.019Z,6.63
2018-04-24T03:44:18.523Z,6.53
2018-04-24T03:46:48.046Z,7.07
2018-04-24T03:49:17.555Z,7.00
2018-04-24T03:51:47.063Z,6.67
2018-04-24T03:54:16.783Z,6.53
2018-04-24T03:56:46.285Z,6.97
2018-04-24T03:59:15.787Z,6.80
2018-04-24T04:01:45.297Z,6.43
2018-04-24T04:04:14.813Z,6.73
2018-04-24T04:06:44.321Z,7.43
2018-04-24T04:09:14.056Z,7.10
2018-04-24T04:11:44.179Z,6.70
2018-04-24T04:14:14.090Z,6.73
2018-04-24T04:16:44.000Z,6.60
2018-04-24T04:19:30.729Z,6.77
2018-04-24T04:22:17.047Z,6.77
2018-04-24T04:24:49.101Z,6.97
2018-04-24T04:27:18.601Z,7.00
2018-04-24T04:29:50.233Z,7.10
2018-04-24T04:32:20.158Z,6.80
2018-04-24T04:34:50.054Z,6.97
2018-04-24T04:37:19.335Z,7.60
2018-04-24T04:39:48.884Z,7.00
2018-04-24T04:42:18.783Z,7.60
2018-04-24T04:44:48.709Z,6.87
2018-04-24T04:47:18.961Z,8.00
2018-04-24T04:49:48.480Z,6.97
2018-04-24T04:52:17.996Z,7.20
2018-04-24T04:54:47.510Z,5.83
2018-04-24T04:57:17.055Z,6.17
2018-04-24T04:59:46.966Z,6.47
2018-04-24T05:02:16.870Z,6.57
2018-04-24T05:04:46.792Z,6.20
2018-04-24T05:07:16.694Z,6.40
2018-04-24T05:09:46.224Z,6.77
2018-04-24T05:12:16.136Z,5.87
2018-04-24T05:14:46.048Z,6.10
2018-04-24T05:17:15.963Z,6.30
2018-04-24T05:19:45.872Z,7.37
2018-04-24T05:22:15.819Z,6.83
2018-04-24T05:24:45.520Z,6.40
2018-04-24T05:27:15.028Z,6.87
2018-04-24T05:29:44.540Z,5.80
2018-04-24T05:32:14.056Z,6.07
2018-04-24T05:34:43.571Z,5.67
2018-04-24T05:37:13.090Z,4.93
2018-04-24T05:39:42.602Z,5.73
2018-04-24T05:42:12.138Z,5.33
2018-04-24T05:44:41.638Z,5.57
2018-04-24T05:47:10.920Z,5.30
2018-04-24T05:49:40.431Z,4.97
2018-04-24T05:52:09.940Z,5.10
2018-04-24T05:54:39.472Z,4.60
2018-04-24T05:57:09.151Z,5.20
2018-04-24T05:59:38.671Z,4.60
2018-04-24T06:02:08.185Z,5.57
2018-04-24T06:04:38.087Z,5.73
2018-04-24T06:07:07.599Z,5.40
2018-04-24T06:09:37.155Z,5.10
2018-04-24T06:12:06.668Z,5.17
2018-04-24T06:14:36.175Z,6.50
2018-04-24T06:17:05.702Z,7.83
2018-04-24T06:19:35.221Z,8.03
2018-04-24T06:22:04.732Z,8.63
2018-04-24T06:24:34.258Z,9.07
2018-04-24T06:27:04.170Z,9.13
2018-04-24T06:29:34.083Z,8.77
2018-04-24T06:32:03.980Z,8.20
2018-04-24T06:34:33.495Z,8.67
2018-04-24T06:37:03.405Z,6.83
2018-04-24T06:39:32.902Z,6.63
2018-04-24T06:42:02.401Z,6.57
2018-04-24T06:44:31.889Z,6.33
2018-04-24T06:47:01.421Z,6.60
2018-04-24T06:49:30.910Z,6.43
2018-04-24T06:52:00.457Z,5.70
2018-04-24T06:54:30.352Z,5.80
2018-04-24T06:56:59.861Z,6.10
2018-04-24T06:59:29.769Z,5.80
2018-04-24T07:01:59.271Z,5.50
2018-04-24T07:04:28.782Z,5.80
2018-04-24T07:06:58.301Z,5.40
2018-04-24T07:09:28.219Z,4.90
2018-04-24T07:11:58.123Z,5.20
2018-04-24T07:14:27.826Z,4.90
2018-04-24T07:16:57.380Z,4.73
2018-04-24T07:19:27.041Z,4.93
2018-04-24T07:21:56.548Z,4.33
2018-04-24T07:24:26.112Z,4.40
2018-04-24T07:26:55.676Z,4.93
2018-04-24T07:29:25.586Z,4.30
2018-04-24T07:31:55.259Z,4.47
2018-04-24T07:34:25.732Z,3.95
2018-04-24T07:36:55.830Z,3.92
2018-04-24T07:39:25.896Z,3.75
2018-04-24T07:41:56.351Z,4.07
2018-04-24T07:44:26.801Z,4.03
2018-04-24T07:46:56.404Z,4.30
2018-04-24T07:49:26.009Z,4.57
2018-04-24T07:51:55.535Z,4.53
2018-04-24T07:54:25.593Z,3.92
2018-04-24T07:56:55.857Z,4.20
2018-04-24T07:59:25.950Z,3.60
2018-04-24T08:01:56.187Z,4.70
2018-04-24T08:04:25.695Z,4.63
2018-04-24T08:06:56.161Z,4.60
2018-04-24T08:09:26.225Z,4.12
2018-04-24T08:11:56.290Z,4.40
2018-04-24T08:14:26.366Z,4.28
2018-04-24T08:16:56.430Z,4.40
2018-04-24T08:19:26.489Z,4.22
2018-04-24T08:21:56.563Z,3.92
2018-04-24T08:24:26.640Z,4.45
2018-04-24T08:26:57.104Z,4.53
2018-04-24T08:29:27.192Z,4.80
2018-04-24T08:31:57.663Z,4.15
2018-04-24T08:34:27.745Z,5.00
2018-04-24T08:36:58.220Z,4.87
2018-04-24T08:39:28.317Z,5.40
2018-04-24T08:41:58.394Z,5.12
2018-04-24T08:44:28.474Z,5.30
2018-04-24T08:46:58.547Z,4.65
2018-04-24T08:49:28.060Z,4.60
2018-04-24T08:51:57.568Z,5.53
2018-04-24T08:54:27.273Z,5.17
2018-04-24T08:56:56.779Z,5.03
2018-04-24T08:59:26.273Z,5.43
2018-04-24T09:01:56.752Z,4.87
2018-04-24T09:04:26.789Z,4.72
2018-04-24T09:06:56.859Z,3.85
2018-04-24T09:09:26.980Z,4.90
2018-04-24T09:11:57.241Z,5.18
2018-04-24T09:14:27.320Z,4.75
2018-04-24T09:16:56.833Z,4.68
2018-04-24T09:19:27.119Z,5.12
2018-04-24T09:21:56.623Z,4.53
2018-04-24T09:24:26.146Z,4.67
2018-04-24T09:26:55.765Z,5.20
2018-04-24T09:29:25.809Z,5.33
2018-04-24T09:31:55.307Z,5.63
2018-04-24T09:34:24.817Z,4.90
2018-04-24T09:36:54.321Z,5.28
2018-04-24T09:39:24.379Z,4.43
2018-04-24T09:41:54.458Z,4.60
2018-04-24T09:44:24.548Z,5.50
2018-04-24T09:46:55.220Z,4.90
2018-04-24T09:49:25.392Z,4.95
2018-04-24T09:51:55.601Z,4.95
2018-04-24T09:54:25.688Z,4.10
2018-04-24T09:56:55.984Z,4.20
2018-04-24T09:59:26.064Z,4.57
2018-04-24T10:01:56.149Z,4.18
2018-04-24T10:04:26.422Z,4.15
2018-04-24T10:06:56.477Z,3.62
2018-04-24T10:09:26.331Z,4.25
2018-04-24T10:11:56.400Z,3.95
2018-04-24T10:14:26.479Z,4.00
2018-04-24T10:16:56.528Z,3.92
2018-04-24T10:19:26.623Z,3.72
2018-04-24T10:21:56.694Z,3.30
2018-04-24T10:24:26.778Z,3.53
2018-04-24T10:26:57.243Z,3.20
2018-04-24T10:29:27.359Z,3.22
2018-04-24T10:31:57.420Z,3.00
2018-04-24T10:34:27.490Z,2.80
2018-04-24T10:36:57.548Z,2.70
2018-04-24T10:39:27.633Z,2.83
2018-04-24T10:41:57.691Z,3.72
2018-04-24T10:44:27.766Z,3.40
2018-04-24T10:46:57.840Z,2.95
2018-04-24T10:49:27.941Z,3.22
2018-04-24T10:51:58.027Z,3.78
2018-04-24T10:54:28.098Z,3.45
2018-04-24T10:56:58.570Z,3.58
2018-04-24T10:59:28.636Z,3.80
2018-04-24T11:01:58.697Z,3.47
2018-04-24T11:04:28.779Z,4.00
2018-04-24T11:06:58.854Z,3.40
2018-04-24T11:09:28.937Z,3.30
2018-04-24T11:11:59.410Z,3.17
2018-04-24T11:14:29.485Z,3.60
2018-04-24T11:16:59.939Z,3.65
2018-04-24T11:19:30.027Z,3.35
2018-04-24T11:22:00.483Z,3.28
2018-04-24T11:24:30.537Z,3.03
2018-04-24T11:27:00.596Z,2.85
2018-04-24T11:29:31.079Z,3.47
2018-04-24T11:32:01.159Z,3.40
2018-04-24T11:34:31.673Z,3.08
2018-04-24T11:37:01.887Z,2.78
2018-04-24T11:39:31.610Z,2.85
2018-04-24T11:42:02.052Z,2.90
2018-04-24T11:44:32.117Z,2.95
2018-04-24T11:47:01.946Z,2.80
2018-04-24T11:49:32.053Z,3.22
2018-04-24T11:52:02.286Z,3.10
2018-04-24T11:54:32.361Z,3.00
2018-04-24T11:57:02.440Z,2.67
2018-04-24T11:59:32.720Z,2.33
2018-04-24T12:02:02.788Z,2.83
2018-04-24T12:04:33.054Z,3.08
2018-04-24T12:07:02.881Z,2.67
2018-04-24T12:09:32.719Z,2.40
2018-04-24T12:12:02.781Z,2.40
2018-04-24T12:14:32.831Z,2.75
2018-04-24T12:17:02.905Z,2.92
2018-04-24T12:19:33.368Z,2.90
2018-04-24T12:22:03.438Z,3.17
2018-04-24T12:24:33.983Z,2.90
2018-04-24T12:27:04.143Z,3.10
2018-04-24T12:29:34.207Z,3.33
2018-04-24T12:32:04.682Z,2.75
2018-04-24T12:34:34.734Z,2.70
2018-04-24T12:37:04.852Z,2.62
2018-04-24T12:39:34.686Z,2.60
2018-04-24T12:42:05.169Z,2.90
2018-04-24T12:44:35.227Z,2.50
2018-04-24T12:47:05.295Z,3.15
2018-04-24T12:49:35.358Z,2.78
2018-04-24T12:52:05.428Z,2.85
2018-04-24T12:54:35.259Z,2.80
2018-04-24T12:57:05.334Z,2.92
2018-04-24T12:59:35.792Z,3.00
2018-04-24T13:02:05.860Z,2.92
2018-04-24T13:04:35.977Z,3.15
2018-04-24T13:07:06.198Z,2.70
2018-04-24T13:09:36.270Z,3.08
2018-04-24T13:12:06.321Z,2.90
2018-04-24T13:14:36.383Z,2.65
2018-04-24T13:17:06.869Z,2.95
2018-04-24T13:19:36.994Z,2.70
2018-04-24T13:22:07.053Z,3.05
2018-04-24T13:24:37.396Z,2.75
2018-04-24T13:27:07.463Z,3.08
2018-04-24T13:29:37.531Z,2.85
2018-04-24T13:32:07.579Z,3.12
2018-04-24T13:34:37.637Z,2.90
2018-04-24T13:37:07.891Z,3.08
2018-04-24T13:39:38.151Z,3.35
2018-04-24T13:42:08.308Z,2.85
2018-04-24T13:44:38.481Z,3.42
2018-04-24T13:47:08.537Z,2.78
2018-04-24T13:49:38.611Z,2.80
2018-04-24T13:52:08.707Z,2.85
2018-04-24T13:54:38.771Z,3.70
2018-04-24T13:57:09.060Z,2.58
2018-04-24T13:59:39.127Z,2.92
2018-04-24T14:02:09.190Z,2.75
2018-04-24T14:04:39.243Z,2.80
2018-04-24T14:07:09.316Z,2.83
2018-04-24T14:09:39.980Z,2.87
2018-04-24T14:12:10.050Z,3.05
2018-04-24T14:14:40.295Z,2.90
2018-04-24T14:17:10.357Z,2.50
2018-04-24T14:19:40.420Z,2.45
2018-04-24T14:22:10.876Z,2.22
2018-04-24T14:24:40.946Z,2.42
2018-04-24T14:27:11.030Z,2.33
2018-04-24T14:29:41.074Z,2.47
2018-04-24T14:32:11.142Z,2.12
2018-04-24T14:34:41.196Z,2.37
2018-04-24T14:37:11.270Z,2.30
2018-04-24T14:39:41.368Z,2.50
2018-04-24T14:42:11.624Z,2.40
2018-04-24T14:44:41.684Z,2.50
2018-04-24T14:47:11.770Z,2.10
2018-04-24T14:49:41.838Z,2.50
2018-04-24T14:52:11.910Z,2.37
2018-04-24T14:54:42.524Z,2.30
2018-04-24T14:57:12.599Z,2.15
2018-04-24T14:59:42.655Z,2.62
2018-04-24T15:02:12.712Z,2.65
2018-04-24T15:04:42.772Z,2.65
2018-04-24T15:07:13.339Z,2.15
2018-04-24T15:09:43.523Z,2.35
2018-04-24T15:12:13.595Z,2.15
2018-04-24T15:14:43.662Z,2.00
2018-04-24T15:17:14.125Z,2.40
2018-04-24T15:19:44.174Z,2.78
2018-04-24T15:22:14.247Z,2.35
2018-04-24T15:24:44.294Z,2.90
2018-04-24T15:27:14.368Z,2.37
2018-04-24T15:29:44.837Z,2.80
2018-04-24T15:32:14.913Z,2.40
2018-04-24T15:34:45.381Z,2.55
2018-04-24T15:37:15.497Z,4.28
2018-04-24T15:39:45.568Z,3.10
2018-04-24T15:42:15.880Z,2.55
2018-04-24T15:44:45.946Z,2.50
2018-04-24T15:47:16.019Z,2.50
2018-04-24T15:49:46.096Z,2.75
2018-04-24T15:52:16.167Z,2.33
2018-04-24T15:54:46.263Z,2.33
2018-04-24T15:57:16.332Z,2.50
2018-04-24T15:59:46.778Z,2.75
2018-04-24T16:02:16.864Z,2.40
2018-04-24T16:04:47.533Z,3.00
2018-04-24T16:07:17.595Z,2.75
2018-04-24T16:09:47.656Z,3.00
2018-04-24T16:12:17.814Z,2.58
2018-04-24T16:14:47.865Z,2.70
2018-04-24T16:17:17.942Z,2.67
2018-04-24T16:19:48.002Z,2.55
2018-04-24T16:22:18.090Z,2.87
2018-04-24T16:24:48.200Z,3.00
2018-04-24T16:27:18.314Z,2.78
2018-04-24T16:29:49.054Z,2.85
2018-04-24T16:32:19.201Z,2.95
2018-04-24T16:34:49.263Z,3.10
2018-04-24T16:37:19.338Z,3.17
2018-04-24T16:39:49.444Z,2.92
2018-04-24T16:42:19.540Z,3.35
2018-04-24T16:44:49.608Z,2.90
2018-04-24T16:47:19.671Z,2.90
2018-04-24T16:49:49.743Z,3.05
2018-04-24T16:52:19.809Z,3.10
2018-04-24T16:54:49.884Z,3.33
2018-04-24T16:57:19.984Z,2.90
2018-04-24T16:59:50.047Z,3.00
2018-04-24T17:02:20.511Z,3.15
2018-04-24T17:04:50.589Z,2.83
2018-04-24T17:07:21.120Z,3.00
2018-04-24T17:09:51.196Z,3.47
2018-04-24T17:12:21.260Z,2.92
2018-04-24T17:14:51.720Z,3.10
2018-04-24T17:17:21.838Z,3.37
2018-04-24T17:19:51.977Z,3.03
2018-04-24T17:22:22.183Z,3.30
2018-04-24T17:24:52.263Z,3.22
2018-04-24T17:27:22.744Z,3.72
2018-04-24T17:29:52.813Z,4.15
2018-04-24T17:32:22.918Z,3.22
2018-04-24T17:34:53.363Z,3.45
2018-04-24T17:37:23.464Z,3.92
2018-04-24T17:39:53.938Z,8.98
2018-04-24T17:42:24.014Z,4.68
2018-04-24T17:44:54.078Z,4.62
2018-04-24T17:47:24.240Z,4.90
2018-04-24T17:49:54.349Z,4.15
2018-04-24T17:52:24.656Z,4.15
2018-04-24T17:54:54.725Z,4.40
2018-04-24T17:57:24.827Z,4.15
2018-04-24T17:59:54.900Z,3.50
2018-04-24T18:02:24.989Z,3.80
2018-04-24T18:04:55.492Z,3.72
2018-04-24T18:07:25.555Z,3.72
2018-04-24T18:09:55.630Z,3.72
2018-04-24T18:12:25.695Z,4.25
2018-04-24T18:14:55.769Z,4.15
2018-04-24T18:17:25.852Z,3.67
2018-04-24T18:19:55.960Z,3.37
2018-04-24T18:22:26.032Z,3.35
2018-04-24T18:24:56.095Z,4.03
2018-04-24T18:27:26.178Z,3.65
2018-04-24T18:29:56.664Z,3.60
2018-04-24T18:32:26.075Z,3.92
2018-04-24T18:34:56.159Z,3.83
2018-04-24T18:37:26.229Z,3.78
2018-04-24T18:39:56.281Z,3.50
2018-04-24T18:42:26.750Z,3.65
2018-04-24T18:44:56.826Z,3.53
2018-04-24T18:47:26.916Z,3.50
2018-04-24T18:49:57.159Z,3.25
2018-04-24T18:52:27.631Z,3.42
2018-04-24T18:54:57.483Z,3.87
2018-04-24T18:57:27.718Z,3.45
2018-04-24T18:59:58.218Z,3.90
2018-04-24T19:02:28.324Z,3.45
2018-04-24T19:04:58.237Z,3.87
2018-04-24T19:07:28.307Z,3.62
2018-04-24T19:09:57.834Z,3.72
2018-04-24T19:12:27.931Z,3.60
2018-04-24T19:14:57.429Z,3.40
2018-04-24T19:17:26.951Z,3.67
2018-04-24T19:19:56.479Z,3.97
2018-04-24T19:22:26.001Z,3.70
2018-04-24T19:25:01.179Z,3.73
2018-04-24T19:27:30.684Z,3.73
2018-04-24T19:30:00.208Z,4.10
2018-04-24T19:32:32.766Z,4.00
2018-04-24T19:35:02.276Z,3.90
2018-04-24T19:37:31.796Z,3.87
2018-04-24T19:40:06.617Z,3.53
2018-04-24T19:49:29.766Z,4.00
2018-04-24T19:51:59.399Z,3.53
2018-04-24T19:54:28.925Z,4.20
2018-04-24T19:56:58.658Z,4.23
2018-04-24T19:59:28.374Z,4.30
2018-04-24T20:01:57.883Z,4.10
2018-04-24T20:04:28.088Z,3.67
2018-04-24T20:06:57.453Z,3.63
2018-04-24T20:09:26.961Z,4.00
2018-04-24T20:11:56.503Z,3.40
2018-04-24T20:14:26.045Z,3.47
2018-04-24T20:16:55.556Z,3.70
2018-04-24T20:19:25.780Z,4.00
2018-04-24T20:21:55.696Z,3.80
2018-04-24T20:24:25.610Z,4.00
2018-04-24T20:26:55.526Z,4.00
2018-04-24T20:29:25.450Z,3.90
2018-04-24T20:31:55.433Z,3.90
2018-04-24T20:34:24.961Z,3.70
2018-04-24T20:36:54.812Z,4.43
2018-04-24T20:39:25.209Z,4.13
2018-04-24T20:41:55.314Z,3.63
2018-04-24T20:44:25.209Z,3.77
2018-04-24T20:46:55.465Z,4.10
2018-04-24T20:49:25.361Z,4.40
2018-04-24T20:51:54.645Z,4.70
2018-04-24T20:54:23.939Z,4.03
2018-04-24T20:56:53.494Z,4.97
2018-04-24T20:59:23.185Z,4.20
2018-04-24T21:01:52.390Z,4.33
2018-04-24T21:04:22.305Z,4.47
2018-04-24T21:06:52.260Z,4.30
2018-04-24T21:09:21.768Z,4.37
2018-04-24T21:11:51.302Z,4.40
2018-04-24T21:14:20.827Z,4.07
2018-04-24T21:16:50.100Z,4.20
2018-04-24T21:19:19.645Z,4.63
2018-04-24T21:21:49.582Z,4.00
2018-04-24T21:24:19.121Z,3.83
2018-04-24T21:26:48.666Z,4.43
2018-04-24T21:29:18.189Z,4.47
2018-04-24T21:31:48.112Z,3.80
2018-04-24T21:34:17.634Z,4.10
2018-04-24T21:36:47.210Z,4.00
2018-04-24T21:39:16.797Z,4.33
2018-04-24T21:41:46.322Z,4.37
2018-04-24T21:44:16.268Z,4.40
2018-04-24T21:46:45.812Z,4.20
2018-04-24T21:49:15.358Z,4.40
2018-04-24T21:51:45.286Z,4.60
2018-04-24T21:54:14.912Z,4.30
2018-04-24T21:56:44.406Z,4.17
2018-04-24T21:59:14.204Z,4.10
2018-04-24T22:01:44.174Z,4.13
2018-04-24T22:04:14.234Z,4.77
2018-04-24T22:06:44.177Z,4.63
2018-04-24T22:09:13.695Z,4.73
2018-04-24T22:11:43.208Z,4.77
2018-04-24T22:14:12.709Z,4.60
2018-04-24T22:16:42.413Z,4.60
2018-04-24T22:19:11.928Z,4.73
2018-04-24T22:21:41.639Z,4.90
2018-04-24T22:24:11.184Z,4.67
2018-04-24T22:26:41.113Z,4.67
2018-04-24T22:29:11.036Z,4.63
2018-04-24T22:31:40.806Z,4.77
2018-04-24T22:34:10.400Z,4.50
2018-04-24T22:36:39.932Z,5.00
2018-04-24T22:39:09.446Z,4.67
2018-04-24T22:41:38.956Z,4.77
2018-04-24T22:44:08.498Z,4.23
2018-04-24T22:46:37.998Z,4.80
2018-04-24T22:49:07.544Z,4.53
2018-04-24T22:51:37.051Z,4.60
2018-04-24T22:54:06.594Z,4.80
2018-04-24T22:56:36.565Z,4.23
2018-04-24T22:59:05.706Z,4.53
2018-04-24T23:01:35.626Z,4.80
2018-04-24T23:04:05.571Z,5.17
2018-04-24T23:06:35.081Z,5.00
2018-04-24T23:09:03.793Z,4.33
2018-04-24T23:11:50.193Z,5.07
2018-04-24T23:14:36.735Z,4.80
2018-04-24T23:17:23.573Z,4.07
2018-04-24T23:20:10.011Z,5.03
2018-04-24T23:22:41.686Z,4.67
2018-04-24T23:25:11.225Z,4.50
2018-04-24T23:27:40.481Z,5.17
2018-04-24T23:30:10.040Z,4.60
2018-04-24T23:32:40.757Z,4.90
2018-04-24T23:35:10.677Z,4.80
2018-04-24T23:37:40.214Z,4.80
2018-04-24T23:40:09.424Z,4.60
2018-04-24T23:42:39.032Z,4.60
2018-04-24T23:45:08.294Z,4.80
2018-04-24T23:47:38.188Z,4.63
2018-04-24T23:50:07.701Z,5.13
2018-04-24T23:52:37.613Z,5.00
2018-04-24T23:55:07.127Z,4.60
2018-04-24T23:57:36.713Z,4.73
